createdAt,value
2017-09-29T00:00:14.463Z,12.33
2017-09-29T00:02:40.693Z,12.35
2017-09-29T00:05:06.922Z,12.38
2017-09-29T00:07:33.162Z,12.37
2017-09-29T00:09:59.400Z,12.31
2017-09-29T00:12:25.605Z,12.13
2017-09-29T00:14:51.842Z,12.04
2017-09-29T00:17:18.075Z,12.13
2017-09-29T00:19:44.318Z,12.10
2017-09-29T00:22:10.560Z,12.04
2017-09-29T00:24:36.779Z,11.87
2017-09-29T00:27:03.213Z,11.77
2017-09-29T00:29:29.448Z,11.68
2017-09-29T00:31:55.679Z,11.71
2017-09-29T00:34:21.883Z,11.73
2017-09-29T00:36:48.116Z,11.73
2017-09-29T00:39:14.354Z,11.71
2017-09-29T00:41:40.590Z,11.72
2017-09-29T00:44:06.805Z,11.65
2017-09-29T00:46:33.031Z,11.53
2017-09-29T00:48:59.278Z,11.46
2017-09-29T00:51:25.503Z,11.37
2017-09-29T00:53:51.727Z,11.36
2017-09-29T00:56:17.967Z,11.38
2017-09-29T00:58:44.176Z,11.28
2017-09-29T01:01:10.418Z,11.21
2017-09-29T01:03:36.668Z,11.25
2017-09-29T01:06:02.880Z,11.20
2017-09-29T01:08:29.113Z,11.14
2017-09-29T01:10:55.327Z,11.14
2017-09-29T01:13:21.578Z,11.15
2017-09-29T01:15:47.830Z,11.11
2017-09-29T01:18:14.024Z,11.13
2017-09-29T01:20:40.265Z,11.03
2017-09-29T01:23:06.485Z,11.02
2017-09-29T01:25:32.724Z,11.03
2017-09-29T01:27:58.938Z,10.99
2017-09-29T01:30:25.183Z,11.03
2017-09-29T01:32:51.404Z,11.04
2017-09-29T01:35:17.643Z,11.03
2017-09-29T01:37:43.849Z,11.01
2017-09-29T01:40:10.113Z,10.92
2017-09-29T01:42:36.311Z,10.96
2017-09-29T01:45:02.554Z,10.96
2017-09-29T01:47:28.774Z,10.93
2017-09-29T01:49:55.007Z,10.90
2017-09-29T01:52:21.242Z,10.77
2017-09-29T01:54:47.457Z,10.77
2017-09-29T01:57:13.705Z,10.67
2017-09-29T01:59:39.932Z,10.60
2017-09-29T02:02:06.163Z,10.56
2017-09-29T02:04:32.383Z,10.51
2017-09-29T02:06:58.621Z,10.43
2017-09-29T02:09:24.852Z,10.32
2017-09-29T02:11:51.082Z,10.31
2017-09-29T02:14:17.300Z,10.28
2017-09-29T02:16:43.539Z,10.29
2017-09-29T02:19:09.777Z,10.22
2017-09-29T02:21:36.020Z,10.14
2017-09-29T02:24:02.230Z,10.09
2017-09-29T02:26:28.465Z,10.05
2017-09-29T02:28:54.687Z,10.04
2017-09-29T02:31:20.922Z,10.06
2017-09-29T02:33:47.147Z,10.05
2017-09-29T02:36:13.383Z,10.03
2017-09-29T02:38:39.644Z,9.98
2017-09-29T02:41:05.836Z,10.04
2017-09-29T02:43:32.077Z,10.05
2017-09-29T02:45:58.304Z,10.07
2017-09-29T02:48:24.533Z,10.06
2017-09-29T02:50:50.710Z,10.00
2017-09-29T02:53:16.893Z,9.94
2017-09-29T02:55:43.113Z,9.93
2017-09-29T02:58:09.339Z,9.86
2017-09-29T03:00:35.556Z,9.91
2017-09-29T03:03:01.804Z,9.88
2017-09-29T03:05:28.032Z,9.92
2017-09-29T03:07:54.263Z,9.94
2017-09-29T03:10:20.478Z,10.00
2017-09-29T03:12:46.715Z,10.04
2017-09-29T03:15:12.949Z,10.01
2017-09-29T03:17:39.180Z,9.97
2017-09-29T03:20:05.405Z,9.94
2017-09-29T03:22:31.621Z,9.64
2017-09-29T03:24:57.881Z,9.46
2017-09-29T03:27:24.100Z,9.43
2017-09-29T03:29:50.327Z,9.44
2017-09-29T03:32:16.550Z,9.40
2017-09-29T03:34:42.783Z,9.19
2017-09-29T03:37:09.012Z,9.06
2017-09-29T03:39:35.272Z,8.99
2017-09-29T03:42:01.500Z,8.99
2017-09-29T03:44:27.730Z,9.00
2017-09-29T03:46:53.950Z,8.95
2017-09-29T03:49:20.171Z,8.97
2017-09-29T03:51:46.396Z,8.98
2017-09-29T03:54:12.651Z,8.93
2017-09-29T03:56:38.841Z,8.90
2017-09-29T03:59:05.101Z,8.92
2017-09-29T04:01:31.264Z,8.96
2017-09-29T04:03:57.445Z,9.05
2017-09-29T04:06:23.675Z,9.08
2017-09-29T04:08:49.891Z,9.22
2017-09-29T04:11:16.119Z,9.29
2017-09-29T04:13:42.376Z,9.27
2017-09-29T04:16:08.577Z,9.19
2017-09-29T04:18:34.827Z,9.25
2017-09-29T04:21:01.048Z,9.33
2017-09-29T04:23:27.272Z,9.37
2017-09-29T04:25:53.432Z,9.40
2017-09-29T04:28:19.626Z,9.40
2017-09-29T04:30:45.867Z,9.39
2017-09-29T04:33:12.093Z,9.35
2017-09-29T04:35:38.333Z,9.35
2017-09-29T04:38:04.555Z,9.42
2017-09-29T04:40:30.778Z,9.51
2017-09-29T04:42:57.033Z,9.51
2017-09-29T04:45:23.256Z,9.58
2017-09-29T04:47:49.501Z,9.60
2017-09-29T04:50:15.727Z,9.62
2017-09-29T04:52:41.938Z,9.62
2017-09-29T04:55:08.165Z,9.68
2017-09-29T04:57:34.394Z,9.69
2017-09-29T05:00:00.659Z,9.66
2017-09-29T05:02:26.858Z,9.75
2017-09-29T05:04:53.093Z,9.84
2017-09-29T05:07:19.302Z,9.96
2017-09-29T05:09:45.539Z,9.91
2017-09-29T05:12:11.780Z,10.08
2017-09-29T05:14:38.000Z,10.25
2017-09-29T05:17:04.248Z,10.32
2017-09-29T05:19:30.466Z,10.39
2017-09-29T05:21:56.697Z,10.39
2017-09-29T05:24:23.040Z,10.29
2017-09-29T05:26:49.368Z,10.37
2017-09-29T05:29:15.714Z,10.47
2017-09-29T05:31:41.925Z,10.46
2017-09-29T05:34:08.579Z,10.50
2017-09-29T05:36:35.008Z,10.56
2017-09-29T05:39:01.339Z,10.64
2017-09-29T05:41:27.552Z,10.50
2017-09-29T05:43:53.890Z,10.50
2017-09-29T05:46:20.145Z,10.54
2017-09-29T05:48:46.546Z,10.59
2017-09-29T05:51:12.809Z,10.48
2017-09-29T05:53:38.981Z,10.59
2017-09-29T05:56:05.377Z,10.63
2017-09-29T05:58:31.792Z,10.69
2017-09-29T06:00:58.117Z,10.74
2017-09-29T06:03:24.437Z,10.79
2017-09-29T06:05:50.672Z,10.74
2017-09-29T06:08:16.909Z,10.85
2017-09-29T06:10:43.140Z,10.74
2017-09-29T06:13:09.359Z,10.83
2017-09-29T06:15:35.704Z,10.94
2017-09-29T06:18:02.333Z,11.02
2017-09-29T06:20:28.580Z,11.12
2017-09-29T06:22:54.893Z,11.14
2017-09-29T06:25:21.206Z,11.14
2017-09-29T06:27:47.442Z,11.12
2017-09-29T06:30:13.678Z,11.12
2017-09-29T06:32:39.922Z,11.13
2017-09-29T06:35:06.125Z,11.23
2017-09-29T06:37:32.391Z,11.31
2017-09-29T06:39:58.706Z,11.46
2017-09-29T06:42:24.938Z,11.60
2017-09-29T06:44:51.199Z,11.65
2017-09-29T06:47:17.384Z,11.69
2017-09-29T06:49:43.617Z,11.72
2017-09-29T06:52:09.837Z,11.85
2017-09-29T06:54:36.097Z,11.86
2017-09-29T06:57:02.425Z,12.06
2017-09-29T06:59:28.844Z,12.21
2017-09-29T07:01:55.087Z,12.36
2017-09-29T07:04:21.379Z,12.63
2017-09-29T07:06:47.669Z,12.86
2017-09-29T07:09:13.876Z,13.15
2017-09-29T07:11:40.110Z,13.10
2017-09-29T07:14:06.255Z,13.42
2017-09-29T07:16:32.685Z,13.71
2017-09-29T07:18:58.881Z,13.84
2017-09-29T07:21:25.129Z,13.92
2017-09-29T07:23:51.468Z,13.98
2017-09-29T07:26:17.697Z,14.27
2017-09-29T07:28:44.021Z,14.55
2017-09-29T07:31:10.256Z,14.78
2017-09-29T07:33:36.481Z,14.71
2017-09-29T07:36:02.730Z,14.50
2017-09-29T07:38:29.029Z,14.57
2017-09-29T07:40:55.282Z,14.64
2017-09-29T07:43:21.841Z,14.62
2017-09-29T07:45:48.208Z,14.73
2017-09-29T07:48:14.483Z,14.74
2017-09-29T07:50:40.726Z,14.95
2017-09-29T07:53:06.931Z,15.23
2017-09-29T07:55:33.156Z,15.82
2017-09-29T07:57:59.479Z,16.39
2017-09-29T08:00:25.721Z,16.47
2017-09-29T08:02:52.066Z,16.49
2017-09-29T08:05:18.289Z,16.42
2017-09-29T08:07:45.129Z,16.48
2017-09-29T08:10:11.667Z,16.99
2017-09-29T08:12:37.959Z,17.15
2017-09-29T08:15:04.222Z,16.91
2017-09-29T08:17:30.445Z,17.26
2017-09-29T08:19:56.713Z,17.49
2017-09-29T08:22:23.216Z,17.26
2017-09-29T08:24:49.416Z,17.91
2017-09-29T08:27:15.634Z,18.32
2017-09-29T08:29:41.847Z,17.49
2017-09-29T08:32:08.082Z,18.12
2017-09-29T08:34:34.283Z,19.27
2017-09-29T08:37:00.490Z,20.09
2017-09-29T08:39:26.657Z,19.96
2017-09-29T08:41:52.801Z,20.60
2017-09-29T08:44:19.081Z,21.56
2017-09-29T08:46:45.272Z,21.70
2017-09-29T08:49:11.551Z,20.64
2017-09-29T08:51:40.913Z,19.78
2017-09-29T08:54:07.185Z,18.93
2017-09-29T08:56:33.635Z,19.35
2017-09-29T08:58:59.858Z,19.49
2017-09-29T09:01:26.082Z,18.78
2017-09-29T09:03:52.250Z,19.27
2017-09-29T09:06:18.439Z,19.14
2017-09-29T09:08:44.769Z,19.18
2017-09-29T09:11:10.986Z,18.91
2017-09-29T09:13:37.307Z,18.88
2017-09-29T09:16:03.558Z,19.64
2017-09-29T09:18:29.785Z,19.67
2017-09-29T09:20:56.010Z,18.86
2017-09-29T09:23:22.208Z,18.98
2017-09-29T09:25:48.474Z,18.84
2017-09-29T09:28:15.411Z,18.21
2017-09-29T09:30:41.659Z,18.00
2017-09-29T09:33:07.967Z,17.54
2017-09-29T09:35:34.198Z,17.10
2017-09-29T09:38:00.551Z,17.17
2017-09-29T09:40:26.878Z,17.50
2017-09-29T09:42:53.156Z,17.71
2017-09-29T09:45:19.553Z,17.88
2017-09-29T09:47:45.788Z,18.22
2017-09-29T09:50:12.193Z,18.22
2017-09-29T09:52:38.431Z,17.77
2017-09-29T09:55:04.669Z,17.96
2017-09-29T09:57:30.882Z,18.20
2017-09-29T09:59:57.112Z,18.30
2017-09-29T10:02:23.379Z,18.59
2017-09-29T10:04:49.715Z,18.31
2017-09-29T10:07:15.986Z,18.69
2017-09-29T10:09:42.264Z,18.04
2017-09-29T10:12:08.704Z,18.22
2017-09-29T10:14:35.130Z,18.40
2017-09-29T10:17:01.466Z,18.58
2017-09-29T10:19:27.694Z,18.48
2017-09-29T10:21:53.942Z,19.03
2017-09-29T10:24:20.250Z,19.55
2017-09-29T10:26:46.452Z,19.62
2017-09-29T10:29:12.685Z,19.70
2017-09-29T10:31:39.031Z,19.50
2017-09-29T10:34:05.353Z,19.51
2017-09-29T10:36:31.752Z,19.35
2017-09-29T10:38:58.035Z,19.19
2017-09-29T10:41:24.260Z,18.92
2017-09-29T10:43:50.514Z,19.05
2017-09-29T10:46:16.837Z,19.08
2017-09-29T10:48:43.090Z,19.12
2017-09-29T10:51:09.370Z,19.25
2017-09-29T10:53:35.612Z,19.38
2017-09-29T10:56:01.935Z,19.48
2017-09-29T10:58:28.208Z,19.87
2017-09-29T11:00:54.498Z,19.68
2017-09-29T11:03:20.936Z,18.77
2017-09-29T11:05:47.289Z,18.56
2017-09-29T11:08:13.615Z,18.68
2017-09-29T11:10:40.352Z,18.94
2017-09-29T11:13:06.577Z,18.77
2017-09-29T11:15:32.805Z,18.84
2017-09-29T11:17:59.028Z,18.53
2017-09-29T11:20:25.360Z,18.06
2017-09-29T11:22:51.919Z,17.68
2017-09-29T11:25:18.133Z,17.24
2017-09-29T11:27:44.369Z,17.11
2017-09-29T11:30:10.597Z,17.13
2017-09-29T11:32:36.884Z,17.03
2017-09-29T11:35:03.314Z,17.36
2017-09-29T11:37:29.680Z,17.42
2017-09-29T11:39:56.009Z,17.48
2017-09-29T11:42:22.353Z,17.39
2017-09-29T11:44:48.577Z,17.72
2017-09-29T11:47:14.823Z,17.74
2017-09-29T11:49:41.468Z,17.66
2017-09-29T11:52:07.655Z,17.47
2017-09-29T11:54:33.919Z,17.10
2017-09-29T11:57:00.330Z,17.10
2017-09-29T11:59:27.116Z,17.00
2017-09-29T12:01:53.512Z,16.79
2017-09-29T12:04:19.911Z,16.87
2017-09-29T12:06:46.109Z,16.71
2017-09-29T12:09:12.373Z,16.61
2017-09-29T12:11:38.607Z,16.66
2017-09-29T12:14:04.980Z,16.70
2017-09-29T12:16:31.324Z,16.75
2017-09-29T12:18:57.655Z,16.64
2017-09-29T12:21:23.882Z,16.71
2017-09-29T12:23:50.257Z,16.68
2017-09-29T12:26:16.546Z,16.68
2017-09-29T12:28:42.870Z,16.51
2017-09-29T12:31:09.199Z,16.15
2017-09-29T12:33:35.417Z,16.24
2017-09-29T12:36:01.968Z,16.17
2017-09-29T12:38:28.227Z,16.09
2017-09-29T12:40:54.395Z,16.17
2017-09-29T12:43:20.593Z,16.17
2017-09-29T12:45:46.791Z,16.25
2017-09-29T12:48:13.017Z,16.38
2017-09-29T12:50:39.203Z,16.42
2017-09-29T12:53:05.529Z,16.39
2017-09-29T12:55:31.776Z,16.49
2017-09-29T12:57:57.978Z,16.38
2017-09-29T13:00:24.218Z,16.47
2017-09-29T13:02:50.460Z,16.36
2017-09-29T13:05:16.736Z,16.34
2017-09-29T13:07:43.006Z,16.21
2017-09-29T13:10:09.339Z,16.07
2017-09-29T13:12:35.615Z,16.01
2017-09-29T13:15:01.829Z,16.04
2017-09-29T13:17:28.155Z,16.04
2017-09-29T13:19:54.298Z,15.85
2017-09-29T13:22:20.546Z,15.75
2017-09-29T13:24:47.007Z,15.84
2017-09-29T13:27:13.212Z,15.85
2017-09-29T13:29:39.386Z,15.82
2017-09-29T13:32:05.680Z,15.86
2017-09-29T13:34:32.237Z,15.85
2017-09-29T13:36:58.983Z,15.89
2017-09-29T13:39:25.382Z,15.89
2017-09-29T13:41:51.621Z,15.84
2017-09-29T13:44:17.791Z,15.72
2017-09-29T13:46:44.087Z,15.89
2017-09-29T13:49:10.518Z,15.87
2017-09-29T13:51:36.886Z,16.00
2017-09-29T13:54:03.185Z,15.89
2017-09-29T13:56:29.500Z,16.03
2017-09-29T13:58:55.855Z,15.87
2017-09-29T14:01:22.163Z,15.93
2017-09-29T14:03:48.604Z,15.83
2017-09-29T14:06:14.942Z,15.83
2017-09-29T14:08:41.280Z,15.91
2017-09-29T14:11:07.710Z,15.97
2017-09-29T14:13:34.035Z,15.86
2017-09-29T14:16:00.307Z,15.84
2017-09-29T14:18:27.118Z,15.94
2017-09-29T14:20:53.325Z,15.89
2017-09-29T14:23:19.977Z,15.90
2017-09-29T14:25:46.322Z,15.71
2017-09-29T14:28:12.544Z,15.73
2017-09-29T14:30:38.903Z,15.61
2017-09-29T14:33:05.299Z,15.59
2017-09-29T14:35:31.535Z,15.51
2017-09-29T14:37:57.883Z,15.53
2017-09-29T14:40:24.410Z,15.53
2017-09-29T14:42:51.511Z,15.46
2017-09-29T14:45:18.203Z,15.44
2017-09-29T14:47:51.116Z,15.42
2017-09-29T14:50:21.111Z,15.52
2017-09-29T14:55:27.539Z,15.44
2017-09-29T14:57:54.613Z,15.44
2017-09-29T15:00:21.344Z,15.40
2017-09-29T15:02:48.129Z,15.12
2017-09-29T15:05:14.649Z,15.09
2017-09-29T15:07:41.012Z,15.20
2017-09-29T15:10:09.288Z,15.10
2017-09-29T15:12:36.881Z,15.17
2017-09-29T15:15:04.311Z,15.16
2017-09-29T15:17:31.079Z,15.12
2017-09-29T15:19:57.391Z,14.92
2017-09-29T15:22:23.960Z,14.97
2017-09-29T15:24:51.771Z,14.82
2017-09-29T15:27:18.024Z,14.80
2017-09-29T15:29:44.459Z,14.71
2017-09-29T15:32:10.891Z,14.69
2017-09-29T15:34:37.226Z,14.76
2017-09-29T15:37:03.548Z,14.76
2017-09-29T15:39:29.885Z,14.73
2017-09-29T15:41:56.217Z,14.71
2017-09-29T15:44:22.560Z,14.64
2017-09-29T15:46:49.291Z,14.72
2017-09-29T15:49:16.108Z,14.66
2017-09-29T15:51:42.464Z,14.63
2017-09-29T15:54:08.846Z,14.60
2017-09-29T15:56:35.606Z,14.68
2017-09-29T15:59:04.022Z,14.64
2017-09-29T16:01:39.777Z,14.69
2017-09-29T16:04:06.780Z,14.72
2017-09-29T16:06:33.576Z,14.65
2017-09-29T16:09:00.091Z,14.68
2017-09-29T16:11:27.101Z,14.70
2017-09-29T16:13:53.471Z,14.78
2017-09-29T16:16:21.727Z,14.81
2017-09-29T16:18:48.179Z,14.82
2017-09-29T16:21:14.699Z,14.86
2017-09-29T16:23:49.186Z,14.73
2017-09-29T16:26:15.689Z,14.70
2017-09-29T16:28:51.737Z,14.68
2017-09-29T16:31:19.032Z,14.61
2017-09-29T16:33:45.502Z,14.54
2017-09-29T16:36:22.868Z,14.55
2017-09-29T16:38:49.440Z,14.58
2017-09-29T16:41:24.200Z,14.40
2017-09-29T16:43:51.634Z,14.21
2017-09-29T16:46:18.195Z,14.29
2017-09-29T17:00:56.655Z,13.78
2017-09-29T17:03:25.879Z,13.81
2017-09-29T17:05:52.561Z,13.93
2017-09-29T17:08:20.111Z,13.97
2017-09-29T17:10:47.819Z,14.01
2017-09-29T17:13:15.290Z,14.04
2017-09-29T17:15:41.989Z,14.02
2017-09-29T17:18:08.320Z,14.05
2017-09-29T17:20:34.667Z,14.04
2017-09-29T17:23:08.893Z,14.04
2017-09-29T17:25:35.378Z,14.01
2017-09-29T17:28:02.968Z,14.01
2017-09-29T17:30:29.380Z,14.01
2017-09-29T17:32:55.847Z,14.03
2017-09-29T17:35:22.556Z,14.08
2017-09-29T17:37:48.884Z,14.10
2017-09-29T17:40:15.255Z,14.10
2017-09-29T17:42:41.673Z,14.10
2017-09-29T17:45:08.114Z,14.05
2017-09-29T17:47:34.717Z,14.03
2017-09-29T17:50:01.153Z,13.96
2017-09-29T17:52:27.701Z,13.95
2017-09-29T17:54:54.117Z,13.97
2017-09-29T17:57:21.495Z,13.95
2017-09-29T17:59:47.899Z,13.95
2017-09-29T18:02:14.431Z,13.94
2017-09-29T18:04:41.785Z,13.93
2017-09-29T18:07:08.063Z,13.93
2017-09-29T18:09:34.420Z,13.98
2017-09-29T18:12:00.734Z,13.98
2017-09-29T18:14:27.097Z,13.92
2017-09-29T18:16:53.479Z,13.92
2017-09-29T18:19:20.289Z,13.89
2017-09-29T18:21:46.499Z,13.93
2017-09-29T18:24:14.068Z,13.89
2017-09-29T18:26:40.604Z,13.84
2017-09-29T18:29:14.650Z,13.86
2017-09-29T18:31:40.986Z,13.77
2017-09-29T18:34:07.365Z,13.72
2017-09-29T18:43:17.275Z,13.33
2017-09-29T18:45:44.288Z,13.31
2017-09-29T18:48:10.808Z,13.27
2017-09-29T18:50:41.686Z,13.21
2017-09-29T18:53:08.088Z,13.22
2017-09-29T18:55:37.838Z,13.16
2017-09-29T18:58:04.114Z,12.88
2017-09-29T19:00:31.090Z,12.83
2017-09-29T19:02:57.813Z,12.78
2017-09-29T19:05:24.138Z,12.74
2017-09-29T19:07:50.590Z,12.46
2017-09-29T19:10:16.940Z,12.55
2017-09-29T19:12:43.364Z,12.62
2017-09-29T19:15:09.786Z,12.66
2017-09-29T19:17:36.226Z,12.64
2017-09-29T19:20:02.978Z,12.61
2017-09-29T19:22:29.691Z,12.67
2017-09-29T19:24:56.312Z,12.72
2017-09-29T19:27:22.883Z,12.73
2017-09-29T19:29:49.294Z,12.81
2017-09-29T19:32:15.981Z,12.97
2017-09-29T19:34:42.331Z,12.98
2017-09-29T19:37:09.184Z,13.02
2017-09-29T19:39:35.615Z,13.03
2017-09-29T19:42:02.213Z,13.05
2017-09-29T19:44:28.412Z,13.08
2017-09-29T19:46:54.775Z,13.23
2017-09-29T19:49:21.181Z,13.22
2017-09-29T19:51:48.374Z,13.26
2017-09-29T19:54:15.156Z,13.26
2017-09-29T19:56:41.998Z,13.26
2017-09-29T19:59:10.196Z,13.30
2017-09-29T20:01:36.971Z,13.24
2017-09-29T20:04:11.127Z,13.25
2017-09-29T20:06:41.273Z,13.33
2017-09-29T20:09:10.435Z,13.42
2017-09-29T20:11:36.918Z,13.38
2017-09-29T20:14:03.429Z,13.33
2017-09-29T20:16:30.774Z,13.36
2017-09-29T20:18:59.164Z,13.12
2017-09-29T20:21:25.567Z,13.08
2017-09-29T20:26:22.418Z,13.14
2017-09-29T20:28:49.197Z,13.06
2017-09-29T20:31:22.580Z,12.83
2017-09-29T20:33:56.068Z,13.12
2017-09-29T20:43:04.893Z,13.07
2017-09-29T20:45:32.993Z,13.14
2017-09-29T20:47:59.638Z,13.09
2017-09-29T20:50:29.618Z,13.04
2017-09-29T20:52:56.032Z,13.06
2017-09-29T20:55:22.654Z,13.03
2017-09-29T20:57:48.972Z,13.03
2017-09-29T21:00:15.275Z,13.10
2017-09-29T21:02:41.599Z,13.03
2017-09-29T21:05:07.988Z,12.84
2017-09-29T21:07:34.478Z,12.96
2017-09-29T21:10:01.017Z,12.96
2017-09-29T21:12:27.321Z,12.98
2017-09-29T21:14:53.755Z,12.93
2017-09-29T21:17:20.097Z,12.87
2017-09-29T21:19:46.544Z,12.98
2017-09-29T21:22:13.034Z,13.02
2017-09-29T21:24:39.447Z,12.98
2017-09-29T21:27:06.624Z,13.03
2017-09-29T21:32:03.870Z,12.91
2017-09-29T21:34:31.118Z,12.86
2017-09-29T21:36:57.455Z,12.77
2017-09-29T21:39:23.871Z,12.86
2017-09-29T21:41:50.431Z,12.84
2017-09-29T21:44:17.277Z,12.77
2017-09-29T21:46:43.703Z,12.66
2017-09-29T21:49:10.102Z,12.61
2017-09-29T21:51:36.448Z,12.53
2017-09-29T21:54:03.068Z,12.46
2017-09-29T21:56:30.373Z,12.37
2017-09-29T21:58:56.805Z,12.29
2017-09-29T22:01:23.233Z,12.24
2017-09-29T22:03:49.564Z,12.21
2017-09-29T22:06:15.879Z,12.09
2017-09-29T22:08:42.181Z,12.05
2017-09-29T22:11:08.621Z,12.08
2017-09-29T22:13:34.961Z,11.99
2017-09-29T22:16:01.479Z,12.01
2017-09-29T22:18:27.909Z,12.03
2017-09-29T22:20:54.348Z,11.99
2017-09-29T22:23:20.690Z,11.98
2017-09-29T22:25:47.417Z,11.99
2017-09-29T22:28:13.752Z,11.90
2017-09-29T22:30:40.195Z,11.80
2017-09-29T22:33:07.034Z,11.77
2017-09-29T22:35:33.588Z,11.81
2017-09-29T22:38:00.348Z,11.75
2017-09-29T22:40:26.661Z,11.64
2017-09-29T22:42:53.087Z,11.58
2017-09-29T22:45:19.520Z,11.60
2017-09-29T22:47:45.950Z,11.60
2017-09-29T22:50:12.269Z,11.54
2017-09-29T22:52:38.517Z,11.53
2017-09-29T22:55:04.951Z,11.51
2017-09-29T22:57:31.886Z,11.50
2017-09-29T22:59:58.125Z,11.50
2017-09-29T23:02:24.447Z,11.48
2017-09-29T23:04:50.904Z,11.44
2017-09-29T23:07:17.307Z,11.22
2017-09-29T23:09:43.554Z,11.18
2017-09-29T23:12:09.772Z,11.26
2017-09-29T23:14:36.096Z,11.15
2017-09-29T23:17:03.363Z,11.11
2017-09-29T23:19:30.238Z,11.08
2017-09-29T23:21:56.871Z,11.18
2017-09-29T23:24:23.183Z,11.18
2017-09-29T23:26:49.430Z,11.08
2017-09-29T23:29:15.733Z,11.06
2017-09-29T23:31:42.294Z,11.05
2017-09-29T23:34:08.716Z,11.19
2017-09-29T23:36:34.979Z,11.30
2017-09-29T23:39:01.191Z,11.34
2017-09-29T23:41:27.501Z,11.35
2017-09-29T23:43:53.832Z,11.37
2017-09-29T23:46:20.188Z,11.42
2017-09-29T23:48:46.595Z,11.41
2017-09-29T23:51:12.943Z,11.44
2017-09-29T23:53:39.278Z,11.44
2017-09-29T23:56:05.613Z,11.45
2017-09-29T23:58:32.053Z,11.39
